createdAt,value
2023-04-07T00:01:55.853Z,11.20
2023-04-07T00:04:23.214Z,11.10
2023-04-07T00:06:50.439Z,10.90
2023-04-07T00:09:17.590Z,10.90
2023-04-07T00:11:44.728Z,10.90
2023-04-07T00:14:11.815Z,11.10
2023-04-07T00:16:38.915Z,11.00
2023-04-07T00:19:05.979Z,10.80
2023-04-07T00:21:33.082Z,10.90
2023-04-07T00:24:00.307Z,11.10
2023-04-07T00:26:31.460Z,11.00
2023-04-07T00:28:59.157Z,11.00
2023-04-07T00:31:26.382Z,10.90
2023-04-07T00:33:53.746Z,10.90
2023-04-07T00:36:21.190Z,10.80
2023-04-07T00:38:48.246Z,10.80
2023-04-07T00:41:15.816Z,10.90
2023-04-07T00:43:43.266Z,10.90
2023-04-07T00:46:10.508Z,10.90
2023-04-07T00:48:37.988Z,10.90
2023-04-07T00:51:05.214Z,10.90
2023-04-07T00:53:32.296Z,10.90
2023-04-07T00:55:59.566Z,11.00
2023-04-07T00:58:26.674Z,10.70
2023-04-07T01:01:02.975Z,10.60
2023-04-07T01:03:45.301Z,10.80
2023-04-07T01:06:15.020Z,10.80
2023-04-07T01:08:51.647Z,10.90
2023-04-07T01:11:28.289Z,10.80
2023-04-07T01:13:57.604Z,10.80
2023-04-07T01:16:45.901Z,10.70
2023-04-07T01:19:13.556Z,10.60
2023-04-07T01:21:44.060Z,10.70
2023-04-07T01:24:17.207Z,10.80
2023-04-07T01:26:44.863Z,10.70
2023-04-07T01:29:24.240Z,10.80
2023-04-07T01:31:51.629Z,10.70
2023-04-07T01:34:19.552Z,10.50
2023-04-07T01:36:47.035Z,10.70
2023-04-07T01:39:14.389Z,10.70
2023-04-07T01:41:41.824Z,10.70
2023-04-07T01:44:09.623Z,10.70
2023-04-07T01:46:36.810Z,10.80
2023-04-07T01:49:04.836Z,10.70
2023-04-07T01:51:32.635Z,10.60
2023-04-07T01:54:01.785Z,10.60
2023-04-07T01:56:29.188Z,10.70
2023-04-07T01:58:57.969Z,10.70
2023-04-07T02:01:26.049Z,10.70
2023-04-07T02:04:01.533Z,10.70
2023-04-07T02:06:36.540Z,10.60
2023-04-07T02:09:06.944Z,10.70
2023-04-07T02:11:36.069Z,10.70
2023-04-07T02:14:07.008Z,10.70
2023-04-07T02:16:45.787Z,10.70
2023-04-07T02:19:14.598Z,10.80
2023-04-07T02:21:42.325Z,10.70
2023-04-07T02:24:11.275Z,10.70
2023-04-07T02:26:38.359Z,10.80
2023-04-07T02:29:05.814Z,10.80
2023-04-07T02:31:33.032Z,10.80
2023-04-07T02:34:01.356Z,10.80
2023-04-07T02:36:28.477Z,10.90
2023-04-07T02:38:56.053Z,10.80
2023-04-07T02:41:23.129Z,10.70
2023-04-07T02:43:50.263Z,10.80
2023-04-07T02:46:17.378Z,10.80
2023-04-07T02:48:44.490Z,10.90
2023-04-07T02:51:11.612Z,10.90
2023-04-07T02:53:38.794Z,10.80
2023-04-07T02:56:06.531Z,10.80
2023-04-07T02:58:33.668Z,10.80
2023-04-07T03:01:00.806Z,10.70
2023-04-07T03:03:31.564Z,10.70
2023-04-07T03:06:06.527Z,10.80
2023-04-07T03:08:36.529Z,11.00
2023-04-07T03:11:03.633Z,10.90
2023-04-07T03:13:31.324Z,10.80
2023-04-07T03:15:58.457Z,10.70
2023-04-07T03:18:29.874Z,10.60
2023-04-07T03:21:01.296Z,10.50
2023-04-07T03:23:29.436Z,10.50
2023-04-07T03:25:58.567Z,10.50
2023-04-07T03:28:29.992Z,10.50
2023-04-07T03:30:57.282Z,10.40
2023-04-07T03:33:24.709Z,10.30
2023-04-07T03:35:54.183Z,10.20
2023-04-07T03:38:21.832Z,10.40
2023-04-07T03:40:53.755Z,10.20
2023-04-07T03:43:22.089Z,10.00
2023-04-07T03:45:49.153Z,10.00
2023-04-07T03:48:17.662Z,10.10
2023-04-07T03:50:57.818Z,10.00
2023-04-07T03:53:24.969Z,10.10
2023-04-07T03:55:53.151Z,10.00
2023-04-07T03:58:33.435Z,9.90
2023-04-07T04:01:00.685Z,10.00
2023-04-07T04:03:28.210Z,10.10
2023-04-07T04:06:21.439Z,10.10
2023-04-07T04:08:49.286Z,9.90
2023-04-07T04:11:16.455Z,9.90
2023-04-07T04:13:52.496Z,9.90
2023-04-07T04:16:19.992Z,9.90
2023-04-07T04:18:49.001Z,9.90
2023-04-07T04:21:17.122Z,9.80
2023-04-07T04:23:45.967Z,9.90
2023-04-07T04:26:13.355Z,9.80
2023-04-07T04:28:43.264Z,9.80
2023-04-07T04:31:10.945Z,9.70
2023-04-07T04:33:42.846Z,9.60
2023-04-07T04:36:10.067Z,9.60
2023-04-07T04:38:37.496Z,9.70
2023-04-07T04:41:15.407Z,9.70
2023-04-07T04:43:43.529Z,9.60
2023-04-07T04:46:13.043Z,9.60
2023-04-07T04:48:43.272Z,9.70
2023-04-07T04:51:10.351Z,9.70
2023-04-07T04:53:39.375Z,9.60
2023-04-07T04:56:07.838Z,9.70
2023-04-07T04:58:47.114Z,9.70
2023-04-07T05:01:46.836Z,9.60
2023-04-07T05:04:18.004Z,9.50
2023-04-07T05:06:51.677Z,9.40
2023-04-07T05:09:21.204Z,9.30
2023-04-07T05:11:49.549Z,9.30
2023-04-07T05:14:16.638Z,9.20
2023-04-07T05:16:50.625Z,9.20
2023-04-07T05:19:21.691Z,9.30
2023-04-07T05:21:50.441Z,9.50
2023-04-07T05:24:20.418Z,9.60
2023-04-07T05:26:52.959Z,9.50
2023-04-07T05:29:20.371Z,9.40
2023-04-07T05:31:48.479Z,9.40
2023-04-07T05:34:17.635Z,9.40
2023-04-07T05:36:51.091Z,9.40
2023-04-07T05:39:18.262Z,9.40
2023-04-07T05:41:46.626Z,9.50
2023-04-07T05:44:15.310Z,9.60
2023-04-07T05:46:45.340Z,9.70
2023-04-07T05:49:19.950Z,9.70
2023-04-07T05:51:51.908Z,9.90
2023-04-07T05:54:20.085Z,9.80
2023-04-07T05:56:48.477Z,9.80
2023-04-07T05:59:15.588Z,9.90
2023-04-07T06:01:43.064Z,10.00
2023-04-07T06:04:11.138Z,10.00
2023-04-07T06:06:38.571Z,10.00
2023-04-07T06:09:07.013Z,9.80
2023-04-07T06:11:35.346Z,9.80
2023-04-07T06:14:02.426Z,9.90
2023-04-07T06:16:29.637Z,9.90
2023-04-07T06:18:56.912Z,10.10
2023-04-07T06:21:27.421Z,10.00
2023-04-07T06:23:54.514Z,10.10
2023-04-07T06:26:21.930Z,10.30
2023-04-07T06:28:48.976Z,10.20
2023-04-07T06:31:16.672Z,10.30
2023-04-07T06:33:44.122Z,10.60
2023-04-07T06:36:11.481Z,10.80
2023-04-07T06:38:38.672Z,10.90
2023-04-07T06:41:06.362Z,11.20
2023-04-07T06:43:33.458Z,11.40
2023-04-07T06:46:04.765Z,11.60
2023-04-07T06:48:31.870Z,12.00
2023-04-07T06:50:58.954Z,12.00
2023-04-07T06:53:26.160Z,12.20
2023-04-07T06:56:02.627Z,12.30
2023-04-07T06:58:29.709Z,12.50
2023-04-07T07:00:56.775Z,12.90
2023-04-07T07:03:24.071Z,13.00
2023-04-07T07:05:52.791Z,13.40
2023-04-07T07:08:19.951Z,13.40
2023-04-07T07:10:47.004Z,13.40
2023-04-07T07:13:14.091Z,13.40
2023-04-07T07:15:41.305Z,13.60
2023-04-07T07:18:08.493Z,13.60
2023-04-07T07:20:35.804Z,13.40
2023-04-07T07:23:02.876Z,13.50
2023-04-07T07:25:30.202Z,13.40
2023-04-07T07:27:57.311Z,13.30
2023-04-07T07:30:24.681Z,13.60
2023-04-07T07:32:53.697Z,14.00
2023-04-07T07:35:21.345Z,14.30
2023-04-07T07:37:48.884Z,14.20
2023-04-07T07:40:16.036Z,14.60
2023-04-07T07:42:43.126Z,15.40
2023-04-07T07:45:10.360Z,15.90
2023-04-07T07:47:37.818Z,15.70
2023-04-07T07:50:05.645Z,17.00
2023-04-07T07:52:32.752Z,16.20
2023-04-07T07:54:59.794Z,16.80
2023-04-07T07:57:26.929Z,16.20
2023-04-07T07:59:54.044Z,16.20
2023-04-07T08:02:21.379Z,16.00
2023-04-07T08:04:48.575Z,15.90
2023-04-07T08:07:16.354Z,17.50
2023-04-07T08:09:43.397Z,18.20
2023-04-07T08:12:10.642Z,17.70
2023-04-07T08:14:37.888Z,17.40
2023-04-07T08:17:05.476Z,17.60
2023-04-07T08:19:32.606Z,16.70
2023-04-07T08:21:59.659Z,16.10
2023-04-07T08:24:28.160Z,16.60
2023-04-07T08:26:56.030Z,17.60
2023-04-07T08:29:23.112Z,18.20
2023-04-07T08:31:50.356Z,18.00
2023-04-07T08:34:18.969Z,16.20
2023-04-07T08:36:46.811Z,15.60
2023-04-07T08:39:13.872Z,15.30
2023-04-07T08:41:41.557Z,14.70
2023-04-07T08:44:09.543Z,14.80
2023-04-07T08:46:38.658Z,15.00
2023-04-07T08:49:10.188Z,15.10
2023-04-07T08:51:37.953Z,15.20
2023-04-07T08:54:06.879Z,16.20
2023-04-07T08:56:34.532Z,16.70
2023-04-07T08:59:02.590Z,16.30
2023-04-07T09:01:29.991Z,15.90
2023-04-07T09:03:58.290Z,15.40
2023-04-07T09:06:27.467Z,14.90
2023-04-07T09:08:55.383Z,15.40
2023-04-07T09:11:23.653Z,16.20
2023-04-07T09:13:51.396Z,16.80
2023-04-07T09:16:18.769Z,17.20
2023-04-07T09:18:46.012Z,17.40
2023-04-07T09:21:15.537Z,17.80
2023-04-07T09:23:43.106Z,18.50
2023-04-07T09:26:22.064Z,18.10
2023-04-07T09:28:50.679Z,16.90
2023-04-07T09:31:17.867Z,15.90
2023-04-07T09:33:45.013Z,15.70
2023-04-07T09:36:12.416Z,16.10
2023-04-07T09:38:40.584Z,16.40
2023-04-07T09:41:10.995Z,17.00
2023-04-07T09:43:40.516Z,16.80
2023-04-07T09:46:11.818Z,16.40
2023-04-07T09:48:39.957Z,16.70
2023-04-07T09:51:08.279Z,16.80
2023-04-07T09:53:44.986Z,17.20
2023-04-07T09:56:12.234Z,16.90
2023-04-07T09:58:40.882Z,16.50
2023-04-07T10:01:09.498Z,16.30
2023-04-07T10:03:37.498Z,16.30
2023-04-07T10:06:06.467Z,16.30
2023-04-07T10:08:35.614Z,16.10
2023-04-07T10:11:03.585Z,16.10
2023-04-07T10:13:31.761Z,16.10
2023-04-07T10:15:59.702Z,16.10
2023-04-07T10:18:29.865Z,15.80
2023-04-07T10:20:57.687Z,15.70
2023-04-07T10:23:28.029Z,15.60
2023-04-07T10:25:58.280Z,15.70
2023-04-07T10:28:26.423Z,15.60
2023-04-07T10:30:53.888Z,15.70
2023-04-07T10:33:39.537Z,15.70
2023-04-07T10:36:07.377Z,15.40
2023-04-07T10:38:34.593Z,15.20
2023-04-07T10:41:22.001Z,15.10
2023-04-07T10:43:49.505Z,15.20
2023-04-07T10:46:17.023Z,14.90
2023-04-07T10:49:04.607Z,15.20
2023-04-07T10:51:31.739Z,15.20
2023-04-07T10:54:18.506Z,15.30
2023-04-07T10:57:03.857Z,15.30
2023-04-07T10:59:31.085Z,15.20
2023-04-07T11:02:13.795Z,14.90
2023-04-07T11:04:42.532Z,15.10
2023-04-07T11:07:10.271Z,15.10
2023-04-07T11:09:37.593Z,15.10
2023-04-07T11:12:07.657Z,15.20
2023-04-07T11:14:37.497Z,15.20
2023-04-07T11:17:04.673Z,15.20
2023-04-07T11:19:50.458Z,15.10
2023-04-07T11:22:29.354Z,15.20
2023-04-07T11:24:57.305Z,15.10
2023-04-07T11:27:24.694Z,15.30
2023-04-07T11:29:51.951Z,15.30
2023-04-07T11:32:24.877Z,15.40
2023-04-07T11:34:52.807Z,15.60
2023-04-07T11:37:23.637Z,15.80
2023-04-07T11:39:54.183Z,15.90
2023-04-07T11:42:38.225Z,15.80
2023-04-07T11:45:08.183Z,15.90
2023-04-07T11:47:36.081Z,16.10
2023-04-07T11:50:03.425Z,15.70
2023-04-07T11:52:40.798Z,15.60
2023-04-07T11:55:16.471Z,15.60
2023-04-07T11:57:43.598Z,15.70
2023-04-07T12:00:11.658Z,15.80
2023-04-07T12:02:39.017Z,15.50
2023-04-07T12:05:06.756Z,15.50
2023-04-07T12:07:33.967Z,15.80
2023-04-07T12:10:17.866Z,15.90
2023-04-07T12:12:45.388Z,16.20
2023-04-07T12:15:13.614Z,16.50
2023-04-07T12:17:44.922Z,16.40
2023-04-07T12:20:12.200Z,16.40
2023-04-07T12:22:39.299Z,16.70
2023-04-07T12:25:06.511Z,16.60
2023-04-07T12:27:42.845Z,16.60
2023-04-07T12:30:11.045Z,16.50
2023-04-07T12:32:38.529Z,16.60
2023-04-07T12:35:06.195Z,16.70
2023-04-07T12:37:33.318Z,16.70
2023-04-07T12:40:00.670Z,16.60
2023-04-07T12:42:28.091Z,16.50
2023-04-07T12:44:55.445Z,16.60
2023-04-07T12:47:22.608Z,16.40
2023-04-07T12:49:50.279Z,16.10
2023-04-07T12:52:17.564Z,16.20
2023-04-07T12:54:45.332Z,16.10
2023-04-07T12:57:12.724Z,16.10
2023-04-07T12:59:39.865Z,16.10
2023-04-07T13:02:08.051Z,16.20
2023-04-07T13:04:35.675Z,16.20
2023-04-07T13:07:03.292Z,16.20
2023-04-07T13:09:30.415Z,16.00
2023-04-07T13:11:57.955Z,16.00
2023-04-07T13:14:25.283Z,16.00
2023-04-07T13:16:52.748Z,16.00
2023-04-07T13:19:19.941Z,16.00
2023-04-07T13:21:48.223Z,15.90
2023-04-07T13:24:15.883Z,15.90
2023-04-07T13:26:43.143Z,15.80
2023-04-07T13:29:10.442Z,15.80
2023-04-07T13:31:37.643Z,15.80
2023-04-07T13:34:04.819Z,15.80
2023-04-07T13:36:32.019Z,15.90
2023-04-07T13:38:59.767Z,15.80
2023-04-07T13:41:26.899Z,15.70
2023-04-07T13:43:53.998Z,15.90
2023-04-07T13:46:28.504Z,15.90
2023-04-07T13:48:56.707Z,15.90
2023-04-07T13:51:23.846Z,15.90
2023-04-07T13:53:51.317Z,15.80
2023-04-07T13:56:18.528Z,15.70
2023-04-07T13:58:46.034Z,15.90
2023-04-07T14:01:13.346Z,15.90
2023-04-07T14:03:40.565Z,15.90
2023-04-07T14:06:07.706Z,15.90
2023-04-07T14:08:34.787Z,15.90
2023-04-07T14:11:02.365Z,15.90
2023-04-07T14:13:29.400Z,15.90
2023-04-07T14:15:56.546Z,15.90
2023-04-07T14:18:23.825Z,15.90
2023-04-07T14:20:50.970Z,15.90
2023-04-07T14:23:30.028Z,15.80
2023-04-07T14:26:03.582Z,15.80
2023-04-07T14:28:30.823Z,15.80
2023-04-07T14:30:57.943Z,15.70
2023-04-07T14:33:26.079Z,15.70
2023-04-07T14:35:53.290Z,15.60
2023-04-07T14:38:24.281Z,15.60
2023-04-07T14:40:53.948Z,15.60
2023-04-07T14:43:21.117Z,15.60
2023-04-07T14:45:48.173Z,15.50
2023-04-07T14:48:15.263Z,15.50
2023-04-07T14:50:42.352Z,15.40
2023-04-07T14:53:09.470Z,15.40
2023-04-07T14:55:37.038Z,15.30
2023-04-07T14:58:04.147Z,15.30
2023-04-07T15:00:31.275Z,15.30
2023-04-07T15:02:58.563Z,15.30
2023-04-07T15:05:29.085Z,15.30
2023-04-07T15:07:57.040Z,15.30
2023-04-07T15:10:24.181Z,15.30
2023-04-07T15:12:51.251Z,15.30
2023-04-07T15:15:18.568Z,15.20
2023-04-07T15:17:45.845Z,15.20
2023-04-07T15:20:13.630Z,15.20
2023-04-07T15:22:40.897Z,15.10
2023-04-07T15:25:08.574Z,15.10
2023-04-07T15:27:36.364Z,15.10
2023-04-07T15:30:03.773Z,15.10
2023-04-07T15:32:31.910Z,15.10
2023-04-07T15:34:59.054Z,15.20
2023-04-07T15:37:26.283Z,15.20
2023-04-07T15:39:53.411Z,15.10
2023-04-07T15:42:20.632Z,15.20
2023-04-07T15:44:47.835Z,15.30
2023-04-07T15:47:14.926Z,15.30
2023-04-07T15:49:42.290Z,15.20
2023-04-07T15:52:09.561Z,15.20
2023-04-07T15:54:36.674Z,15.10
2023-04-07T15:57:03.805Z,15.10
2023-04-07T15:59:31.180Z,15.10
2023-04-07T16:01:58.644Z,15.10
2023-04-07T16:04:25.907Z,15.00
2023-04-07T16:06:53.096Z,15.10
2023-04-07T16:09:20.262Z,15.10
2023-04-07T16:11:47.343Z,15.10
2023-04-07T16:14:14.390Z,15.10
2023-04-07T16:16:41.641Z,15.20
2023-04-07T16:19:08.890Z,15.10
2023-04-07T16:21:35.969Z,15.10
2023-04-07T16:24:03.032Z,15.00
2023-04-07T16:26:30.242Z,15.00
2023-04-07T16:28:57.325Z,15.10
2023-04-07T16:31:24.394Z,15.00
2023-04-07T16:33:51.621Z,15.00
2023-04-07T16:36:18.869Z,15.00
2023-04-07T16:38:46.027Z,15.10
2023-04-07T16:41:14.584Z,15.00
2023-04-07T16:43:41.694Z,15.00
2023-04-07T16:46:08.791Z,15.00
2023-04-07T16:48:36.030Z,15.00
2023-04-07T16:51:03.119Z,14.90
2023-04-07T16:53:30.182Z,14.90
2023-04-07T16:55:57.329Z,14.90
2023-04-07T16:58:24.607Z,14.80
2023-04-07T17:00:51.695Z,14.80
2023-04-07T17:03:18.936Z,14.80
2023-04-07T17:05:47.153Z,14.70
2023-04-07T17:08:14.270Z,14.80
2023-04-07T17:10:41.388Z,14.70
2023-04-07T17:13:08.449Z,14.70
2023-04-07T17:15:37.126Z,14.60
2023-04-07T17:18:04.371Z,14.60
2023-04-07T17:20:31.509Z,14.60
2023-04-07T17:22:58.634Z,14.60
2023-04-07T17:25:25.873Z,14.50
2023-04-07T17:27:55.018Z,14.50
2023-04-07T17:30:22.510Z,14.50
2023-04-07T17:32:50.723Z,14.40
2023-04-07T17:35:18.241Z,14.40
2023-04-07T17:37:46.017Z,14.40
2023-04-07T17:40:13.136Z,14.40
2023-04-07T17:42:40.376Z,14.30
2023-04-07T17:45:08.297Z,14.30
2023-04-07T17:47:35.745Z,14.20
2023-04-07T17:50:03.177Z,14.20
2023-04-07T17:52:30.516Z,14.20
2023-04-07T17:54:58.096Z,14.10
2023-04-07T17:57:25.448Z,14.10
2023-04-07T17:59:52.571Z,14.00
2023-04-07T18:02:19.921Z,14.00
2023-04-07T18:04:47.471Z,14.00
2023-04-07T18:07:14.928Z,14.00
2023-04-07T18:09:43.069Z,13.90
2023-04-07T18:12:10.409Z,13.80
2023-04-07T18:14:37.714Z,13.80
2023-04-07T18:17:04.811Z,13.80
2023-04-07T18:19:33.825Z,13.70
2023-04-07T18:22:01.032Z,13.60
2023-04-07T18:24:28.192Z,13.60
2023-04-07T18:26:57.768Z,13.50
2023-04-07T18:29:24.811Z,13.50
2023-04-07T18:31:51.977Z,13.60
2023-04-07T18:34:19.158Z,13.50
2023-04-07T18:36:47.502Z,13.70
2023-04-07T18:39:14.831Z,13.60
2023-04-07T18:41:44.610Z,13.60
2023-04-07T18:44:12.144Z,13.60
2023-04-07T18:46:39.323Z,13.50
2023-04-07T18:49:06.416Z,13.70
2023-04-07T18:51:33.525Z,13.50
2023-04-07T18:54:00.794Z,13.50
2023-04-07T18:56:28.475Z,13.60
2023-04-07T18:58:55.742Z,13.60
2023-04-07T19:01:23.079Z,13.60
2023-04-07T19:03:50.677Z,13.50
2023-04-07T19:06:17.895Z,13.30
2023-04-07T19:08:45.062Z,13.30
2023-04-07T19:11:12.119Z,13.40
2023-04-07T19:13:39.194Z,13.30
2023-04-07T19:16:07.700Z,13.30
2023-04-07T19:18:34.872Z,13.10
2023-04-07T19:21:02.260Z,12.80
2023-04-07T19:23:30.485Z,12.90
2023-04-07T19:25:57.650Z,12.90
2023-04-07T19:28:24.842Z,12.80
2023-04-07T19:30:52.083Z,12.70
2023-04-07T19:33:19.212Z,12.70
2023-04-07T19:35:46.431Z,12.90
2023-04-07T19:38:13.572Z,12.90
2023-04-07T19:40:40.838Z,12.70
2023-04-07T19:43:08.307Z,12.60
2023-04-07T19:45:35.524Z,12.50
2023-04-07T19:48:03.202Z,12.40
2023-04-07T19:50:30.591Z,12.50
2023-04-07T19:52:57.655Z,12.40
2023-04-07T19:55:24.838Z,12.20
2023-04-07T19:57:51.999Z,12.10
2023-04-07T20:00:19.347Z,12.10
2023-04-07T20:02:49.698Z,12.10
2023-04-07T20:05:17.683Z,12.10
2023-04-07T20:07:45.840Z,12.00
2023-04-07T20:10:12.942Z,12.10
2023-04-07T20:12:40.045Z,12.10
2023-04-07T20:15:07.916Z,12.10
2023-04-07T20:17:36.878Z,12.10
2023-04-07T20:20:04.979Z,12.10
2023-04-07T20:22:33.018Z,12.00
2023-04-07T20:25:04.556Z,12.00
2023-04-07T20:27:32.099Z,12.00
2023-04-07T20:29:59.325Z,12.00
2023-04-07T20:32:26.571Z,12.10
2023-04-07T20:34:53.987Z,12.00
2023-04-07T20:37:21.791Z,12.00
2023-04-07T20:39:49.105Z,12.00
2023-04-07T20:42:16.432Z,12.00
2023-04-07T20:44:43.612Z,12.00
2023-04-07T20:47:11.480Z,12.00
2023-04-07T20:49:39.726Z,12.00
2023-04-07T20:52:07.195Z,12.00
2023-04-07T20:54:35.475Z,11.90
2023-04-07T20:57:02.552Z,11.90
2023-04-07T20:59:30.348Z,11.90
2023-04-07T21:01:57.527Z,11.90
2023-04-07T21:04:24.860Z,12.00
2023-04-07T21:06:52.247Z,11.90
2023-04-07T21:09:19.382Z,11.80
2023-04-07T21:11:46.462Z,11.70
2023-04-07T21:14:13.532Z,11.60
2023-04-07T21:16:40.761Z,11.60
2023-04-07T21:19:08.000Z,11.40
2023-04-07T21:21:35.207Z,11.40
2023-04-07T21:24:02.243Z,11.20
2023-04-07T21:26:29.320Z,11.20
2023-04-07T21:28:56.531Z,11.10
2023-04-07T21:31:24.242Z,11.00
2023-04-07T21:33:52.758Z,11.00
2023-04-07T21:36:19.986Z,11.00
2023-04-07T21:38:47.778Z,10.90
2023-04-07T21:41:16.631Z,10.90
2023-04-07T21:43:43.815Z,10.90
2023-04-07T21:46:11.054Z,10.90
2023-04-07T21:48:38.228Z,10.90
2023-04-07T21:51:05.628Z,10.90
2023-04-07T21:53:32.752Z,10.90
2023-04-07T21:55:59.829Z,10.80
2023-04-07T21:58:26.983Z,10.80
2023-04-07T22:00:54.446Z,10.70
2023-04-07T22:03:21.995Z,10.70
2023-04-07T22:05:49.329Z,10.60
2023-04-07T22:08:17.075Z,10.50
2023-04-07T22:10:44.351Z,10.40
2023-04-07T22:13:11.516Z,10.40
2023-04-07T22:15:38.685Z,10.30
2023-04-07T22:18:06.774Z,10.30
2023-04-07T22:20:33.980Z,10.40
2023-04-07T22:23:01.204Z,10.30
2023-04-07T22:25:28.480Z,10.30
2023-04-07T22:27:56.870Z,10.30
2023-04-07T22:30:24.608Z,10.30
2023-04-07T22:32:52.121Z,10.30
2023-04-07T22:35:19.382Z,10.30
2023-04-07T22:37:46.574Z,10.20
2023-04-07T22:40:13.691Z,10.20
2023-04-07T22:42:40.992Z,10.20
2023-04-07T22:45:08.460Z,10.20
2023-04-07T22:47:36.084Z,10.20
2023-04-07T22:50:03.353Z,10.20
2023-04-07T22:52:30.429Z,10.20
2023-04-07T22:54:57.878Z,10.20
2023-04-07T22:57:26.194Z,10.30
2023-04-07T22:59:53.445Z,10.20
2023-04-07T23:02:20.803Z,10.20
2023-04-07T23:04:48.783Z,10.20
2023-04-07T23:07:16.101Z,10.20
2023-04-07T23:09:43.218Z,10.10
2023-04-07T23:12:10.509Z,10.10
2023-04-07T23:14:37.607Z,10.10
2023-04-07T23:17:04.711Z,10.00
2023-04-07T23:19:31.851Z,10.00
2023-04-07T23:21:58.999Z,10.00
2023-04-07T23:24:26.060Z,10.00
2023-04-07T23:26:53.186Z,10.00
2023-04-07T23:29:20.245Z,10.00
2023-04-07T23:31:47.936Z,9.90
2023-04-07T23:34:15.065Z,9.90
2023-04-07T23:36:42.571Z,10.00
2023-04-07T23:39:09.676Z,10.00
2023-04-07T23:41:36.964Z,9.90
2023-04-07T23:44:04.143Z,9.90
2023-04-07T23:46:31.279Z,9.80
2023-04-07T23:48:58.409Z,9.80
2023-04-07T23:51:26.508Z,9.90
2023-04-07T23:53:53.722Z,9.80
2023-04-07T23:56:20.852Z,9.80
2023-04-07T23:58:48.315Z,9.80
